Mercury — 3FFC7 — position and weather

sailwx.info

Track history (hours):
 
Tides and Currents Weather Stations Pressure Air Temp Water Temp Dewpoint Dewpoint Depression Visibility Wind Speed Wind Dir Waves Ship Positions

Mercury

Operator: Royal Caribbean Cruises Ltd

Last reported at 2019-Feb-13 09:12 UTC. Time now 2019-Feb-23 17:00 UTC.
Position N 35°03' E 139°37'.
Warning: this ship's position is 10 days out of date.

Length 199 m; draft 7.6 m.

Type: Cargo ship. MMSI: 371862000.

Date/timePositionNaut miles runAvg speedWind from/ knotsBaromVisibWave heightAir tempDewpointWater temp
2019-Feb-13 09:12N 35°03' E 139°37'316.3
2019-Feb-13 09:00N 35°05' E 139°41'714.6
2019-Feb-13 08:30N 35°11' E 139°46'511.0
2019-Feb-13 08:00N 35°16' E 139°46'612.0
2019-Feb-13 07:30N 35°21' E 139°42'612.0
2019-Feb-13 07:00N 35°27' E 139°43'1 2.8
2019-Feb-13 06:30N 35°28' E 139°41'0 0.0
2019-Feb-13 06:00N 35°28' E 139°41'0 0.1
2019-Feb-13 05:30N 35°28' E 139°41'0 0.1
2019-Feb-13 05:00N 35°28' E 139°41'0 0.0
2019-Feb-13 04:30N 35°28' E 139°41'0 0.0
2019-Feb-13 03:57N 35°28' E 139°41'0 0.0
2019-Feb-13 03:30N 35°28' E 139°41'0 0.1
2019-Feb-13 03:00N 35°28' E 139°41'0 0.1
2019-Feb-13 02:30N 35°28' E 139°41'0 0.1
2019-Feb-13 01:57N 35°28' E 139°41'0 0.0
2019-Feb-13 01:30N 35°28' E 139°41'0 0.1
2019-Feb-13 01:00N 35°28' E 139°41'0 0.0
2019-Feb-13 00:30N 35°28' E 139°41'0 0.0
2019-Feb-13 00:00N 35°28' E 139°41'0 0.1
2019-Feb-12 23:30N 35°28' E 139°41'0 0.0
2019-Feb-12 23:00N 35°28' E 139°41'0 0.2
2019-Feb-12 22:30N 35°28' E 139°41'1 2.3
2019-Feb-12 22:00N 35°28' E 139°42'2 4.9
2019-Feb-12 21:30N 35°26' E 139°44'0 0.2
2019-Feb-12 21:00N 35°26' E 139°44'0 0.1
2019-Feb-12 20:30N 35°26' E 139°44'0 0.1
2019-Feb-12 20:00N 35°26' E 139°44'0 0.0
2019-Feb-12 19:30N 35°26' E 139°44'0 0.1
2019-Feb-12 19:00N 35°26' E 139°44'0 0.1
2019-Feb-12 18:30N 35°26' E 139°44'0 0.0
2019-Feb-12 18:00N 35°26' E 139°44'0 0.1
2019-Feb-12 17:30N 35°26' E 139°44'0 0.0
2019-Feb-12 17:00N 35°26' E 139°44'0 0.0
2019-Feb-12 16:30N 35°26' E 139°44'0 0.0
2019-Feb-12 16:00N 35°26' E 139°44'0 0.1
2019-Feb-12 15:30N 35°26' E 139°44'0 0.0
2019-Feb-12 15:00N 35°26' E 139°44'0 0.0
2019-Feb-12 14:30N 35°26' E 139°44'0 0.0
2019-Feb-12 14:00N 35°26' E 139°44'0 0.0
2019-Feb-12 13:30N 35°26' E 139°44'0 0.1
2019-Feb-12 13:00N 35°26' E 139°44'0 0.1
2019-Feb-12 12:30N 35°26' E 139°44'0 0.1
2019-Feb-12 12:00N 35°26' E 139°44'0 0.0
2019-Feb-12 11:30N 35°26' E 139°44'0 0.1
2019-Feb-12 11:00N 35°26' E 139°44'0 0.0
2019-Feb-12 10:30N 35°26' E 139°44'0 0.0
2019-Feb-12 10:00N 35°26' E 139°44'0 0.0
2019-Feb-12 09:30N 35°26' E 139°44'0 0.0
2019-Feb-12 09:00N 35°26' E 139°44'0 0.1
2019-Feb-12 08:31N 35°26' E 139°44'0 1.0
2019-Feb-12 08:01N 35°26' E 139°43'4 7.4
2019-Feb-12 07:31N 35°22' E 139°43'4 8.3
2019-Feb-12 07:01N 35°19' E 139°39'0 0.8
2019-Feb-12 06:26N 35°19' E 139°39'0 0.0
2019-Feb-12 05:59N 35°19' E 139°39'0 0.0
2019-Feb-12 05:23N 35°19' E 139°39'0 0.0
2019-Feb-12 04:56N 35°19' E 139°39'0 0.0
2019-Feb-12 04:29N 35°19' E 139°39'0 0.0
2019-Feb-12 03:53N 35°19' E 139°39'0 0.0
2019-Feb-12 03:29N 35°19' E 139°39'0 0.0
2019-Feb-12 02:59N 35°19' E 139°39'0 0.0
2019-Feb-12 02:29N 35°19' E 139°39'0 0.0
2019-Feb-12 01:59N 35°19' E 139°39'0 0.0
2019-Feb-12 01:29N 35°19' E 139°39'0 0.0
2019-Feb-12 00:59N 35°19' E 139°39'0 0.0
2019-Feb-12 00:29N 35°19' E 139°39'0 0.0
2019-Feb-11 23:56N 35°19' E 139°39'0 0.0
2019-Feb-11 23:29N 35°19' E 139°39'0 0.0
2019-Feb-11 22:59N 35°19' E 139°39'0 0.0
2019-Feb-11 22:30N 35°19' E 139°39'2 3.8
2019-Feb-11 22:01N 35°19' E 139°41'5 9.7
2019-Feb-11 21:31N 35°16' E 139°46'611.3
2019-Feb-11 21:01N 35°11' E 139°47'4 7.4
2019-Feb-11 20:31N 35°07' E 139°45'3 5.9
2019-Feb-11 20:00N 35°04' E 139°44'4 7.5
2019-Feb-11 19:28N 35°00' E 139°42'4 8.9
2019-Feb-11 19:01N 34°56' E 139°41'  
Track history (hours):
 
Tides and Currents Weather Stations Pressure Air Temp Water Temp Dewpoint Dewpoint Depression Visibility Wind Speed Wind Dir Waves Ship Positions

Mercury

Operator: Royal Caribbean Cruises Ltd

Last reported at 2019-Feb-13 09:12 UTC. Time now 2019-Feb-23 17:00 UTC.
Position N 35°03' E 139°37'.
Warning: this ship's position is 10 days out of date.

Length 199 m; draft 7.6 m.

Type: Cargo ship. MMSI: 371862000.

Date/timePositionNaut miles runAvg speedWind from/ knotsBaromVisibWave heightAir tempDewpointWater temp
2019-Feb-13 09:12N 35°03' E 139°37'316.3
2019-Feb-13 09:00N 35°05' E 139°41'714.6
2019-Feb-13 08:30N 35°11' E 139°46'511.0
2019-Feb-13 08:00N 35°16' E 139°46'612.0
2019-Feb-13 07:30N 35°21' E 139°42'612.0
2019-Feb-13 07:00N 35°27' E 139°43'1 2.8
2019-Feb-13 06:30N 35°28' E 139°41'0 0.0
2019-Feb-13 06:00N 35°28' E 139°41'0 0.1
2019-Feb-13 05:30N 35°28' E 139°41'0 0.1
2019-Feb-13 05:00N 35°28' E 139°41'0 0.0
2019-Feb-13 04:30N 35°28' E 139°41'0 0.0
2019-Feb-13 03:57N 35°28' E 139°41'0 0.0
2019-Feb-13 03:30N 35°28' E 139°41'0 0.1
2019-Feb-13 03:00N 35°28' E 139°41'0 0.1
2019-Feb-13 02:30N 35°28' E 139°41'0 0.1
2019-Feb-13 01:57N 35°28' E 139°41'0 0.0
2019-Feb-13 01:30N 35°28' E 139°41'0 0.1
2019-Feb-13 01:00N 35°28' E 139°41'0 0.0
2019-Feb-13 00:30N 35°28' E 139°41'0 0.0
2019-Feb-13 00:00N 35°28' E 139°41'0 0.1
2019-Feb-12 23:30N 35°28' E 139°41'0 0.0
2019-Feb-12 23:00N 35°28' E 139°41'0 0.2
2019-Feb-12 22:30N 35°28' E 139°41'1 2.3
2019-Feb-12 22:00N 35°28' E 139°42'2 4.9
2019-Feb-12 21:30N 35°26' E 139°44'0 0.2
2019-Feb-12 21:00N 35°26' E 139°44'0 0.1
2019-Feb-12 20:30N 35°26' E 139°44'0 0.1
2019-Feb-12 20:00N 35°26' E 139°44'0 0.0
2019-Feb-12 19:30N 35°26' E 139°44'0 0.1
2019-Feb-12 19:00N 35°26' E 139°44'0 0.1
2019-Feb-12 18:30N 35°26' E 139°44'0 0.0
2019-Feb-12 18:00N 35°26' E 139°44'0 0.1
2019-Feb-12 17:30N 35°26' E 139°44'0 0.0
2019-Feb-12 17:00N 35°26' E 139°44'0 0.0
2019-Feb-12 16:30N 35°26' E 139°44'0 0.0
2019-Feb-12 16:00N 35°26' E 139°44'0 0.1
2019-Feb-12 15:30N 35°26' E 139°44'0 0.0
2019-Feb-12 15:00N 35°26' E 139°44'0 0.0
2019-Feb-12 14:30N 35°26' E 139°44'0 0.0
2019-Feb-12 14:00N 35°26' E 139°44'0 0.0
2019-Feb-12 13:30N 35°26' E 139°44'0 0.1
2019-Feb-12 13:00N 35°26' E 139°44'0 0.1
2019-Feb-12 12:30N 35°26' E 139°44'0 0.1
2019-Feb-12 12:00N 35°26' E 139°44'0 0.0
2019-Feb-12 11:30N 35°26' E 139°44'0 0.1
2019-Feb-12 11:00N 35°26' E 139°44'0 0.0
2019-Feb-12 10:30N 35°26' E 139°44'0 0.0
2019-Feb-12 10:00N 35°26' E 139°44'0 0.0
2019-Feb-12 09:30N 35°26' E 139°44'0 0.0
2019-Feb-12 09:00N 35°26' E 139°44'0 0.1
2019-Feb-12 08:31N 35°26' E 139°44'0 1.0
2019-Feb-12 08:01N 35°26' E 139°43'4 7.4
2019-Feb-12 07:31N 35°22' E 139°43'4 8.3
2019-Feb-12 07:01N 35°19' E 139°39'0 0.8
2019-Feb-12 06:26N 35°19' E 139°39'0 0.0
2019-Feb-12 05:59N 35°19' E 139°39'0 0.0
2019-Feb-12 05:23N 35°19' E 139°39'0 0.0
2019-Feb-12 04:56N 35°19' E 139°39'0 0.0
2019-Feb-12 04:29N 35°19' E 139°39'0 0.0
2019-Feb-12 03:53N 35°19' E 139°39'0 0.0
2019-Feb-12 03:29N 35°19' E 139°39'0 0.0
2019-Feb-12 02:59N 35°19' E 139°39'0 0.0
2019-Feb-12 02:29N 35°19' E 139°39'0 0.0
2019-Feb-12 01:59N 35°19' E 139°39'0 0.0
2019-Feb-12 01:29N 35°19' E 139°39'0 0.0
2019-Feb-12 00:59N 35°19' E 139°39'0 0.0
2019-Feb-12 00:29N 35°19' E 139°39'0 0.0
2019-Feb-11 23:56N 35°19' E 139°39'0 0.0
2019-Feb-11 23:29N 35°19' E 139°39'0 0.0
2019-Feb-11 22:59N 35°19' E 139°39'0 0.0
2019-Feb-11 22:30N 35°19' E 139°39'2 3.8
2019-Feb-11 22:01N 35°19' E 139°41'5 9.7
2019-Feb-11 21:31N 35°16' E 139°46'611.3
2019-Feb-11 21:01N 35°11' E 139°47'4 7.4
2019-Feb-11 20:31N 35°07' E 139°45'3 5.9
2019-Feb-11 20:00N 35°04' E 139°44'4 7.5
2019-Feb-11 19:28N 35°00' E 139°42'4 8.9
2019-Feb-11 19:01N 34°56' E 139°41'  

Dump ship's entire track history